sensor_id;sensor_type;location;lat;lon;timestamp;P1;P2;P0
44871;PMS7003;30602;51.060;17.226;2024-03-23T00:54:13;22;22;15
44871;PMS7003;30602;51.060;17.226;2024-03-23T00:57:30;25;23;14
44871;PMS7003;30602;51.060;17.226;2024-03-23T01:00:53;21;20;15
44871;PMS7003;30602;51.060;17.226;2024-03-23T01:04:17;22;20;14
44871;PMS7003;30602;51.060;17.226;2024-03-23T01:07:40;23;19;14
44871;PMS7003;30602;51.060;17.226;2024-03-23T01:10:58;26;21;14
44871;PMS7003;30602;51.060;17.226;2024-03-23T01:14:24;21;18;13
44871;PMS7003;30602;51.060;17.226;2024-03-23T01:17:48;25;22;14
44871;PMS7003;30602;51.060;17.226;2024-03-23T01:21:12;22;21;15
44871;PMS7003;30602;51.060;17.226;2024-03-23T01:24:31;24;20;13
44871;PMS7003;30602;51.060;17.226;2024-03-23T01:27:53;22;19;14
44871;PMS7003;30602;51.060;17.226;2024-03-23T01:31:20;35;27;15
44871;PMS7003;30602;51.060;17.226;2024-03-23T01:34:42;22;21;14
44871;PMS7003;30602;51.060;17.226;2024-03-23T01:37:59;24;23;15
44871;PMS7003;30602;51.060;17.226;2024-03-23T01:41:20;25;23;16
44871;PMS7003;30602;51.060;17.226;2024-03-23T01:44:46;24;19;14
44871;PMS7003;30602;51.060;17.226;2024-03-23T01:48:07;24;21;16
44871;PMS7003;30602;51.060;17.226;2024-03-23T01:51:35;30;25;15
44871;PMS7003;30602;51.060;17.226;2024-03-23T01:54:58;28;24;15
44871;PMS7003;30602;51.060;17.226;2024-03-23T01:58:18;28;26;17
44871;PMS7003;30602;51.060;17.226;2024-03-23T02:01:44;28;25;15
44871;PMS7003;30602;51.060;17.226;2024-03-23T02:05:05;28;27;16
44871;PMS7003;30602;51.060;17.226;2024-03-23T02:08:25;22;20;13
44871;PMS7003;30602;51.060;17.226;2024-03-23T02:11:45;26;23;15
44871;PMS7003;30602;51.060;17.226;2024-03-23T02:18:45;23;21;14
44871;PMS7003;30602;51.060;17.226;2024-03-23T02:22:03;22;20;14
44871;PMS7003;30602;51.060;17.226;2024-03-23T02:25:21;22;19;13
44871;PMS7003;30602;51.060;17.226;2024-03-23T02:28:45;24;18;13
44871;PMS7003;30602;51.060;17.226;2024-03-23T02:32:06;20;19;14
44871;PMS7003;30602;51.060;17.226;2024-03-23T02:35:31;22;20;13
44871;PMS7003;30602;51.060;17.226;2024-03-23T02:38:57;23;21;14
44871;PMS7003;30602;51.060;17.226;2024-03-23T02:42:17;18;16;11
44871;PMS7003;30602;51.060;17.226;2024-03-23T02:45:35;20;18;12
44871;PMS7003;30602;51.060;17.226;2024-03-23T02:48:57;21;19;13
44871;PMS7003;30602;51.060;17.226;2024-03-23T02:52:18;23;19;13
44871;PMS7003;30602;51.060;17.226;2024-03-23T02:55:42;23;16;11
44871;PMS7003;30602;51.060;17.226;2024-03-23T02:59:05;22;20;12
44871;PMS7003;30602;51.060;17.226;2024-03-23T03:02:28;22;18;11
44871;PMS7003;30602;51.060;17.226;2024-03-23T03:05:54;21;18;13
44871;PMS7003;30602;51.060;17.226;2024-03-23T03:09:19;24;19;12
44871;PMS7003;30602;51.060;17.226;2024-03-23T03:12:40;22;17;12
44871;PMS7003;30602;51.060;17.226;2024-03-23T03:16:03;22;21;13
44871;PMS7003;30602;51.060;17.226;2024-03-23T03:19:30;19;17;13
44871;PMS7003;30602;51.060;17.226;2024-03-23T03:22:50;21;19;12
44871;PMS7003;30602;51.060;17.226;2024-03-23T03:26:16;25;21;11
44871;PMS7003;30602;51.060;17.226;2024-03-23T03:29:37;23;18;12
44871;PMS7003;30602;51.060;17.226;2024-03-23T03:32:57;20;17;13
44871;PMS7003;30602;51.060;17.226;2024-03-23T03:36:18;21;20;12
44871;PMS7003;30602;51.060;17.226;2024-03-23T03:39:38;25;20;13
44871;PMS7003;30602;51.060;17.226;2024-03-23T03:42:58;22;19;14
44871;PMS7003;30602;51.060;17.226;2024-03-23T03:46:18;24;21;15
44871;PMS7003;30602;51.060;17.226;2024-03-23T03:49:37;22;18;11
44871;PMS7003;30602;51.060;17.226;2024-03-23T03:52:58;25;20;13
44871;PMS7003;30602;51.060;17.226;2024-03-23T03:56:20;22;18;13
44871;PMS7003;30602;51.060;17.226;2024-03-23T03:59:41;20;19;14
44871;PMS7003;30602;51.060;17.226;2024-03-23T04:03:02;20;19;13
44871;PMS7003;30602;51.060;17.226;2024-03-23T04:06:20;18;17;11
44871;PMS7003;30602;51.060;17.226;2024-03-23T04:09:38;18;15;12
44871;PMS7003;30602;51.060;17.226;2024-03-23T04:12:59;22;17;13
44871;PMS7003;30602;51.060;17.226;2024-03-23T04:16:51;25;22;14
44871;PMS7003;30602;51.060;17.226;2024-03-23T04:20:15;22;20;14
44871;PMS7003;30602;51.060;17.226;2024-03-23T04:23:33;18;17;12
44871;PMS7003;30602;51.060;17.226;2024-03-23T04:26:51;22;19;13
44871;PMS7003;30602;51.060;17.226;2024-03-23T04:30:13;23;20;14
44871;PMS7003;30602;51.060;17.226;2024-03-23T04:33:36;20;20;13
44871;PMS7003;30602;51.060;17.226;2024-03-23T04:36:59;22;21;14
44871;PMS7003;30602;51.060;17.226;2024-03-23T04:40:20;21;21;14
44871;PMS7003;30602;51.060;17.226;2024-03-23T04:43:48;26;23;15
44871;PMS7003;30602;51.060;17.226;2024-03-23T04:47:11;20;18;13
44871;PMS7003;30602;51.060;17.226;2024-03-23T04:50:29;20;18;13
44871;PMS7003;30602;51.060;17.226;2024-03-23T04:53:46;26;21;14
44871;PMS7003;30602;51.060;17.226;2024-03-23T04:57:11;27;23;15
44871;PMS7003;30602;51.060;17.226;2024-03-23T05:00:33;33;29;16
44871;PMS7003;30602;51.060;17.226;2024-03-23T05:03:54;23;21;15
44871;PMS7003;30602;51.060;17.226;2024-03-23T05:07:20;33;28;18
44871;PMS7003;30602;51.060;17.226;2024-03-23T05:10:44;23;20;14
44871;PMS7003;30602;51.060;17.226;2024-03-23T05:14:06;22;18;13
44871;PMS7003;30602;51.060;17.226;2024-03-23T05:17:33;26;23;15
44871;PMS7003;30602;51.060;17.226;2024-03-23T05:21:01;27;23;15
44871;PMS7003;30602;51.060;17.226;2024-03-23T05:24:23;25;22;17
44871;PMS7003;30602;51.060;17.226;2024-03-23T05:27:46;26;23;16
44871;PMS7003;30602;51.060;17.226;2024-03-23T05:31:07;24;22;14
44871;PMS7003;30602;51.060;17.226;2024-03-23T05:34:30;24;21;15
44871;PMS7003;30602;51.060;17.226;2024-03-23T05:37:48;28;23;14
44871;PMS7003;30602;51.060;17.226;2024-03-23T05:41:10;21;20;14
44871;PMS7003;30602;51.060;17.226;2024-03-23T05:44:32;26;21;14
44871;PMS7003;30602;51.060;17.226;2024-03-23T05:48:00;24;22;11
44871;PMS7003;30602;51.060;17.226;2024-03-23T05:51:21;25;21;14
44871;PMS7003;30602;51.060;17.226;2024-03-23T05:54:43;27;22;16
44871;PMS7003;30602;51.060;17.226;2024-03-23T05:58:06;26;26;17
44871;PMS7003;30602;51.060;17.226;2024-03-23T06:01:26;29;25;15
44871;PMS7003;30602;51.060;17.226;2024-03-23T06:04:49;27;22;16
44871;PMS7003;30602;51.060;17.226;2024-03-23T06:08:07;30;24;14
44871;PMS7003;30602;51.060;17.226;2024-03-23T06:11:29;29;25;17
44871;PMS7003;30602;51.060;17.226;2024-03-23T06:14:49;31;28;17
44871;PMS7003;30602;51.060;17.226;2024-03-23T06:18:10;31;28;16
44871;PMS7003;30602;51.060;17.226;2024-03-23T06:21:33;38;30;18
44871;PMS7003;30602;51.060;17.226;2024-03-23T06:24:49;28;25;18
44871;PMS7003;30602;51.060;17.226;2024-03-23T06:28:12;31;27;18
44871;PMS7003;30602;51.060;17.226;2024-03-23T06:31:36;34;28;17
44871;PMS7003;30602;51.060;17.226;2024-03-23T06:35:01;31;26;17
44871;PMS7003;30602;51.060;17.226;2024-03-23T06:38:24;29;25;17
44871;PMS7003;30602;51.060;17.226;2024-03-23T06:41:52;29;28;17
44871;PMS7003;30602;51.060;17.226;2024-03-23T06:45:16;27;24;16
44871;PMS7003;30602;51.060;17.226;2024-03-23T06:48:44;26;24;17
44871;PMS7003;30602;51.060;17.226;2024-03-23T06:52:16;32;29;18
44871;PMS7003;30602;51.060;17.226;2024-03-23T06:55:34;29;24;18
44871;PMS7003;30602;51.060;17.226;2024-03-23T06:58:54;30;28;19
44871;PMS7003;30602;51.060;17.226;2024-03-23T07:02:15;33;28;17
44871;PMS7003;30602;51.060;17.226;2024-03-23T07:05:37;31;23;17
44871;PMS7003;30602;51.060;17.226;2024-03-23T07:09:40;35;29;17
44871;PMS7003;30602;51.060;17.226;2024-03-23T07:13:08;32;25;16
44871;PMS7003;30602;51.060;17.226;2024-03-23T07:16:29;32;27;18
44871;PMS7003;30602;51.060;17.226;2024-03-23T07:19:53;30;27;17
44871;PMS7003;30602;51.060;17.226;2024-03-23T07:23:11;27;23;17
44871;PMS7003;30602;51.060;17.226;2024-03-23T07:26:29;22;20;15
44871;PMS7003;30602;51.060;17.226;2024-03-23T07:29:52;26;24;17
44871;PMS7003;30602;51.060;17.226;2024-03-23T07:33:15;21;20;14
44871;PMS7003;30602;51.060;17.226;2024-03-23T07:36:43;32;26;16
44871;PMS7003;30602;51.060;17.226;2024-03-23T07:40:08;26;24;18
44871;PMS7003;30602;51.060;17.226;2024-03-23T07:43:30;22;19;15
44871;PMS7003;30602;51.060;17.226;2024-03-23T07:46:48;26;21;14
44871;PMS7003;30602;51.060;17.226;2024-03-23T07:50:08;17;16;13
44871;PMS7003;30602;51.060;17.226;2024-03-23T07:53:28;19;17;12
44871;PMS7003;30602;51.060;17.226;2024-03-23T07:56:52;28;24;15
44871;PMS7003;30602;51.060;17.226;2024-03-23T08:00:14;22;19;13
44871;PMS7003;30602;51.060;17.226;2024-03-23T08:04:05;23;20;13
44871;PMS7003;30602;51.060;17.226;2024-03-23T08:07:28;23;19;14
44871;PMS7003;30602;51.060;17.226;2024-03-23T08:10:49;22;19;13
44871;PMS7003;30602;51.060;17.226;2024-03-23T08:14:16;25;18;13
44871;PMS7003;30602;51.060;17.226;2024-03-23T08:17:34;21;18;14
44871;PMS7003;30602;51.060;17.226;2024-03-23T08:24:27;22;19;12
44871;PMS7003;30602;51.060;17.226;2024-03-23T08:28:21;19;16;10
44871;PMS7003;30602;51.060;17.226;2024-03-23T08:31:40;21;19;13
44871;PMS7003;30602;51.060;17.226;2024-03-23T08:35:01;20;20;14
44871;PMS7003;30602;51.060;17.226;2024-03-23T08:38:29;23;22;13
44871;PMS7003;30602;51.060;17.226;2024-03-23T08:41:50;24;18;13
44871;PMS7003;30602;51.060;17.226;2024-03-23T08:45:10;21;19;12
44871;PMS7003;30602;51.060;17.226;2024-03-23T08:48:32;19;17;13
44871;PMS7003;30602;51.060;17.226;2024-03-23T08:51:59;25;18;13
44871;PMS7003;30602;51.060;17.226;2024-03-23T08:55:24;21;20;12
44871;PMS7003;30602;51.060;17.226;2024-03-23T08:58:45;19;18;12
44871;PMS7003;30602;51.060;17.226;2024-03-23T09:02:05;22;19;11
44871;PMS7003;30602;51.060;17.226;2024-03-23T09:05:26;18;17;11
44871;PMS7003;30602;51.060;17.226;2024-03-23T09:08:50;18;16;12
44871;PMS7003;30602;51.060;17.226;2024-03-23T09:12:08;20;17;12
44871;PMS7003;30602;51.060;17.226;2024-03-23T09:15:28;19;17;13
44871;PMS7003;30602;51.060;17.226;2024-03-23T09:18:51;24;19;12
44871;PMS7003;30602;51.060;17.226;2024-03-23T09:22:09;22;21;14
44871;PMS7003;30602;51.060;17.226;2024-03-23T09:25:37;27;22;13
44871;PMS7003;30602;51.060;17.226;2024-03-23T09:29:06;24;19;14
44871;PMS7003;30602;51.060;17.226;2024-03-23T09:32:24;21;20;13
44871;PMS7003;30602;51.060;17.226;2024-03-23T09:35:47;22;21;15
44871;PMS7003;30602;51.060;17.226;2024-03-23T09:39:38;26;22;17
44871;PMS7003;30602;51.060;17.226;2024-03-23T09:43:01;23;20;15
44871;PMS7003;30602;51.060;17.226;2024-03-23T09:46:19;26;18;14
44871;PMS7003;30602;51.060;17.226;2024-03-23T09:49:40;22;18;14
44871;PMS7003;30602;51.060;17.226;2024-03-23T09:53:33;28;22;16
44871;PMS7003;30602;51.060;17.226;2024-03-23T09:57:23;23;18;14
44871;PMS7003;30602;51.060;17.226;2024-03-23T10:00:45;25;19;13
44871;PMS7003;30602;51.060;17.226;2024-03-23T10:04:08;20;18;13
44871;PMS7003;30602;51.060;17.226;2024-03-23T10:07:34;22;19;12
44871;PMS7003;30602;51.060;17.226;2024-03-23T10:15:07;24;20;16
44871;PMS7003;30602;51.060;17.226;2024-03-23T10:18:36;20;18;14
44871;PMS7003;30602;51.060;17.226;2024-03-23T10:21:59;25;21;15
44871;PMS7003;30602;51.060;17.226;2024-03-23T10:25:53;26;22;15
44871;PMS7003;30602;51.060;17.226;2024-03-23T10:29:11;21;18;14
44871;PMS7003;30602;51.060;17.226;2024-03-23T10:32:30;23;21;14
44871;PMS7003;30602;51.060;17.226;2024-03-23T10:35:51;22;19;14
44871;PMS7003;30602;51.060;17.226;2024-03-23T10:39:11;22;21;15
44871;PMS7003;30602;51.060;17.226;2024-03-23T10:42:36;23;21;16
44871;PMS7003;30602;51.060;17.226;2024-03-23T10:45:59;25;20;15
44871;PMS7003;30602;51.060;17.226;2024-03-23T10:49:17;23;18;13
44871;PMS7003;30602;51.060;17.226;2024-03-23T10:52:37;20;17;13
44871;PMS7003;30602;51.060;17.226;2024-03-23T10:56:30;21;19;15
44871;PMS7003;30602;51.060;17.226;2024-03-23T11:00:22;23;18;14
44871;PMS7003;30602;51.060;17.226;2024-03-23T11:03:47;19;18;13
44871;PMS7003;30602;51.060;17.226;2024-03-23T11:10:40;13;10;9
44871;PMS7003;30602;51.060;17.226;2024-03-23T11:14:03;13;11;9
44871;PMS7003;30602;51.060;17.226;2024-03-23T11:17:33;12;11;9
44871;PMS7003;30602;51.060;17.226;2024-03-23T11:20:53;13;12;9
44871;PMS7003;30602;51.060;17.226;2024-03-23T11:24:15;12;10;9
44871;PMS7003;30602;51.060;17.226;2024-03-23T11:27:38;14;12;10
44871;PMS7003;30602;51.060;17.226;2024-03-23T11:30:59;12;12;9
44871;PMS7003;30602;51.060;17.226;2024-03-23T11:34:20;12;10;9
44871;PMS7003;30602;51.060;17.226;2024-03-23T11:42:04;12;9;8
44871;PMS7003;30602;51.060;17.226;2024-03-23T11:45:54;17;14;11
44871;PMS7003;30602;51.060;17.226;2024-03-23T11:52:45;12;9;8
44871;PMS7003;30602;51.060;17.226;2024-03-23T11:56:06;9;7;7
44871;PMS7003;30602;51.060;17.226;2024-03-23T12:02:53;11;10;8
44871;PMS7003;30602;51.060;17.226;2024-03-23T12:06:19;8;8;7
44871;PMS7003;30602;51.060;17.226;2024-03-23T12:09:36;12;12;9
44871;PMS7003;30602;51.060;17.226;2024-03-23T12:16:19;14;13;10
44871;PMS7003;30602;51.060;17.226;2024-03-23T12:19:38;16;15;12
44871;PMS7003;30602;51.060;17.226;2024-03-23T12:23:06;15;13;11
44871;PMS7003;30602;51.060;17.226;2024-03-23T12:27:03;16;13;10
44871;PMS7003;30602;51.060;17.226;2024-03-23T12:30:26;20;15;12
44871;PMS7003;30602;51.060;17.226;2024-03-23T12:33:48;15;13;10
44871;PMS7003;30602;51.060;17.226;2024-03-23T12:37:07;16;13;11
44871;PMS7003;30602;51.060;17.226;2024-03-23T12:40:57;13;12;11
44871;PMS7003;30602;51.060;17.226;2024-03-23T12:44:18;20;17;14
44871;PMS7003;30602;51.060;17.226;2024-03-23T12:47:38;15;12;11
44871;PMS7003;30602;51.060;17.226;2024-03-23T12:51:01;15;14;11
44871;PMS7003;30602;51.060;17.226;2024-03-23T12:54:23;25;21;15
44871;PMS7003;30602;51.060;17.226;2024-03-23T12:57:42;17;15;11
44871;PMS7003;30602;51.060;17.226;2024-03-23T13:01:33;16;13;11
44871;PMS7003;30602;51.060;17.226;2024-03-23T13:04:51;19;16;12
44871;PMS7003;30602;51.060;17.226;2024-03-23T13:08:44;12;11;9
44871;PMS7003;30602;51.060;17.226;2024-03-23T13:12:34;14;12;10
44871;PMS7003;30602;51.060;17.226;2024-03-23T13:15:52;13;12;9
44871;PMS7003;30602;51.060;17.226;2024-03-23T13:19:40;14;10;9
44871;PMS7003;30602;51.060;17.226;2024-03-23T13:22:57;8;6;5
44871;PMS7003;30602;51.060;17.226;2024-03-23T13:26:17;7;4;3
44871;PMS7003;30602;51.060;17.226;2024-03-23T13:29:37;4;4;3
44871;PMS7003;30602;51.060;17.226;2024-03-23T13:32:55;6;5;4
44871;PMS7003;30602;51.060;17.226;2024-03-23T13:36:16;6;5;5
44871;PMS7003;30602;51.060;17.226;2024-03-23T13:39:34;9;8;6
44871;PMS7003;30602;51.060;17.226;2024-03-23T13:43:27;7;7;5
44871;PMS7003;30602;51.060;17.226;2024-03-23T13:47:14;5;5;5
44871;PMS7003;30602;51.060;17.226;2024-03-23T13:50:32;6;5;4
44871;PMS7003;30602;51.060;17.226;2024-03-23T13:54:24;6;5;5
44871;PMS7003;30602;51.060;17.226;2024-03-23T13:57:47;7;7;5
44871;PMS7003;30602;51.060;17.226;2024-03-23T14:01:38;5;5;4
44871;PMS7003;30602;51.060;17.226;2024-03-23T14:04:57;6;5;4
44871;PMS7003;30602;51.060;17.226;2024-03-23T14:08:17;6;6;5
44871;PMS7003;30602;51.060;17.226;2024-03-23T14:11:41;4;4;3
44871;PMS7003;30602;51.060;17.226;2024-03-23T14:15:06;4;4;3
44871;PMS7003;30602;51.060;17.226;2024-03-23T14:18:25;4;3;3
44871;PMS7003;30602;51.060;17.226;2024-03-23T14:21:43;2;2;1
44871;PMS7003;30602;51.060;17.226;2024-03-23T14:25:00;0;0;0
44871;PMS7003;30602;51.060;17.226;2024-03-23T14:28:18;0;0;0
44871;PMS7003;30602;51.060;17.226;2024-03-23T14:32:09;1;0;0
44871;PMS7003;30602;51.060;17.226;2024-03-23T14:35:26;1;1;0
44871;PMS7003;30602;51.060;17.226;2024-03-23T14:38:47;1;0;0
44871;PMS7003;30602;51.060;17.226;2024-03-23T14:42:05;0;0;0
44871;PMS7003;30602;51.060;17.226;2024-03-23T14:45:26;0;0;0
44871;PMS7003;30602;51.060;17.226;2024-03-23T14:48:47;0;0;0
44871;PMS7003;30602;51.060;17.226;2024-03-23T14:52:07;0;0;0
44871;PMS7003;30602;51.060;17.226;2024-03-23T14:55:28;0;0;0
44871;PMS7003;30602;51.060;17.226;2024-03-23T14:58:46;1;1;0
44871;PMS7003;30602;51.060;17.226;2024-03-23T15:02:10;6;4;4
44871;PMS7003;30602;51.060;17.226;2024-03-23T15:05:30;1;1;1
44871;PMS7003;30602;51.060;17.226;2024-03-23T15:08:52;1;0;0
44871;PMS7003;30602;51.060;17.226;2024-03-23T15:12:13;2;1;1
44871;PMS7003;30602;51.060;17.226;2024-03-23T15:15:38;3;2;2
44871;PMS7003;30602;51.060;17.226;2024-03-23T15:19:35;11;8;6
44871;PMS7003;30602;51.060;17.226;2024-03-23T15:22:53;3;3;1
44871;PMS7003;30602;51.060;17.226;2024-03-23T15:26:10;2;1;1
44871;PMS7003;30602;51.060;17.226;2024-03-23T15:29:32;0;0;0
44871;PMS7003;30602;51.060;17.226;2024-03-23T15:32:51;10;8;6
44871;PMS7003;30602;51.060;17.226;2024-03-23T15:36:11;15;12;7
44871;PMS7003;30602;51.060;17.226;2024-03-23T15:39:31;14;13;8
44871;PMS7003;30602;51.060;17.226;2024-03-23T15:42:49;6;4;3
44871;PMS7003;30602;51.060;17.226;2024-03-23T15:46:06;5;5;5
44871;PMS7003;30602;51.060;17.226;2024-03-23T15:49:29;9;8;6
44871;PMS7003;30602;51.060;17.226;2024-03-23T15:52:49;7;3;3
44871;PMS7003;30602;51.060;17.226;2024-03-23T15:56:07;6;6;4
44871;PMS7003;30602;51.060;17.226;2024-03-23T15:59:34;26;23;12
44871;PMS7003;30602;51.060;17.226;2024-03-23T16:03:30;10;6;4
44871;PMS7003;30602;51.060;17.226;2024-03-23T16:06:54;29;21;11
44871;PMS7003;30602;51.060;17.226;2024-03-23T16:10:16;18;12;7
44871;PMS7003;30602;51.060;17.226;2024-03-23T16:13:37;5;4;2
44871;PMS7003;30602;51.060;17.226;2024-03-23T16:17:00;12;10;6
44871;PMS7003;30602;51.060;17.226;2024-03-23T16:20:16;12;10;6
44871;PMS7003;30602;51.060;17.226;2024-03-23T16:23:34;12;10;7
44871;PMS7003;30602;51.060;17.226;2024-03-23T16:27:05;1;1;1
44871;PMS7003;30602;51.060;17.226;2024-03-23T16:30:25;12;8;6
44871;PMS7003;30602;51.060;17.226;2024-03-23T16:33:47;2;2;1
44871;PMS7003;30602;51.060;17.226;2024-03-23T16:37:09;3;3;3
44871;PMS7003;30602;51.060;17.226;2024-03-23T16:40:30;5;4;3
44871;PMS7003;30602;51.060;17.226;2024-03-23T16:43:48;8;6;5
44871;PMS7003;30602;51.060;17.226;2024-03-23T16:47:08;27;16;8
44871;PMS7003;30602;51.060;17.226;2024-03-23T16:50:27;14;11;6
44871;PMS7003;30602;51.060;17.226;2024-03-23T16:53:45;13;13;7
44871;PMS7003;30602;51.060;17.226;2024-03-23T16:57:04;7;6;4
44871;PMS7003;30602;51.060;17.226;2024-03-23T17:00:29;8;6;4
44871;PMS7003;30602;51.060;17.226;2024-03-23T17:03:50;39;36;22
44871;PMS7003;30602;51.060;17.226;2024-03-23T17:07:18;67;52;31
44871;PMS7003;30602;51.060;17.226;2024-03-23T17:10:34;15;15;8
44871;PMS7003;30602;51.060;17.226;2024-03-23T17:14:00;15;12;8
44871;PMS7003;30602;51.060;17.226;2024-03-23T17:17:21;8;6;4
44871;PMS7003;30602;51.060;17.226;2024-03-23T17:20:43;2;2;2
44871;PMS7003;30602;51.060;17.226;2024-03-23T17:23:59;7;6;5
44871;PMS7003;30602;51.060;17.226;2024-03-23T17:27:50;2;1;1
44871;PMS7003;30602;51.060;17.226;2024-03-23T17:34:36;5;4;3
44871;PMS7003;30602;51.060;17.226;2024-03-23T17:37:56;8;7;5
44871;PMS7003;30602;51.060;17.226;2024-03-23T17:41:19;3;3;3
44871;PMS7003;30602;51.060;17.226;2024-03-23T17:44:39;4;2;1
44871;PMS7003;30602;51.060;17.226;2024-03-23T17:48:32;5;4;2
44871;PMS7003;30602;51.060;17.226;2024-03-23T17:51:53;9;6;5
44871;PMS7003;30602;51.060;17.226;2024-03-23T17:55:11;8;8;5
44871;PMS7003;30602;51.060;17.226;2024-03-23T17:58:32;5;5;3
44871;PMS7003;30602;51.060;17.226;2024-03-23T18:01:50;3;2;1
44871;PMS7003;30602;51.060;17.226;2024-03-23T18:05:11;5;5;3
44871;PMS7003;30602;51.060;17.226;2024-03-23T18:09:02;4;3;2
44871;PMS7003;30602;51.060;17.226;2024-03-23T18:12:22;7;4;3
44871;PMS7003;30602;51.060;17.226;2024-03-23T18:15:42;6;6;4
44871;PMS7003;30602;51.060;17.226;2024-03-23T18:19:00;8;5;3
44871;PMS7003;30602;51.060;17.226;2024-03-23T18:22:51;9;8;6
44871;PMS7003;30602;51.060;17.226;2024-03-23T18:26:46;18;11;7
44871;PMS7003;30602;51.060;17.226;2024-03-23T18:30:06;9;9;6
44871;PMS7003;30602;51.060;17.226;2024-03-23T18:33:32;5;5;4
44871;PMS7003;30602;51.060;17.226;2024-03-23T18:36:53;6;5;4
44871;PMS7003;30602;51.060;17.226;2024-03-23T18:40:12;11;10;6
44871;PMS7003;30602;51.060;17.226;2024-03-23T18:43:35;11;10;7
44871;PMS7003;30602;51.060;17.226;2024-03-23T18:47:34;40;29;15
44871;PMS7003;30602;51.060;17.226;2024-03-23T18:54:55;18;14;9
44871;PMS7003;30602;51.060;17.226;2024-03-23T18:58:13;13;10;7
44871;PMS7003;30602;51.060;17.226;2024-03-23T19:01:32;16;15;10
44871;PMS7003;30602;51.060;17.226;2024-03-23T19:04:55;13;11;7
44871;PMS7003;30602;51.060;17.226;2024-03-23T19:08:14;24;18;14
44871;PMS7003;30602;51.060;17.226;2024-03-23T19:11:36;11;9;5
44871;PMS7003;30602;51.060;17.226;2024-03-23T19:14:56;29;24;15
44871;PMS7003;30602;51.060;17.226;2024-03-23T19:18:48;43;36;20
44871;PMS7003;30602;51.060;17.226;2024-03-23T19:22:08;19;18;11
44871;PMS7003;30602;51.060;17.226;2024-03-23T19:25:59;14;12;9
44871;PMS7003;30602;51.060;17.226;2024-03-23T19:29:18;24;24;19
44871;PMS7003;30602;51.060;17.226;2024-03-23T19:32:41;20;16;9
44871;PMS7003;30602;51.060;17.226;2024-03-23T19:36:36;42;33;19
44871;PMS7003;30602;51.060;17.226;2024-03-23T19:39:59;19;15;10
44871;PMS7003;30602;51.060;17.226;2024-03-23T19:43:22;17;16;14
44871;PMS7003;30602;51.060;17.226;2024-03-23T19:47:20;24;17;13
44871;PMS7003;30602;51.060;17.226;2024-03-23T19:51:11;19;12;9
44871;PMS7003;30602;51.060;17.226;2024-03-23T19:54:30;22;20;14
44871;PMS7003;30602;51.060;17.226;2024-03-23T19:57:49;27;25;18
44871;PMS7003;30602;51.060;17.226;2024-03-23T20:04:45;75;59;36
44871;PMS7003;30602;51.060;17.226;2024-03-23T20:08:44;30;25;16
44871;PMS7003;30602;51.060;17.226;2024-03-23T20:12:05;47;38;22
44871;PMS7003;30602;51.060;17.226;2024-03-23T20:15:26;17;15;11
44871;PMS7003;30602;51.060;17.226;2024-03-23T20:18:43;34;26;16
44871;PMS7003;30602;51.060;17.226;2024-03-23T20:22:11;31;24;14
44871;PMS7003;30602;51.060;17.226;2024-03-23T20:25:28;19;17;11
44871;PMS7003;30602;51.060;17.226;2024-03-23T20:29:20;21;16;10
44871;PMS7003;30602;51.060;17.226;2024-03-23T20:32:46;32;26;16
44871;PMS7003;30602;51.060;17.226;2024-03-23T20:36:11;37;32;17
44871;PMS7003;30602;51.060;17.226;2024-03-23T20:39:38;36;29;17
44871;PMS7003;30602;51.060;17.226;2024-03-23T20:42:56;38;31;22
44871;PMS7003;30602;51.060;17.226;2024-03-23T20:46:33;44;33;19
44871;PMS7003;30602;51.060;17.226;2024-03-23T20:49:53;22;19;14
44871;PMS7003;30602;51.060;17.226;2024-03-23T20:53:16;19;15;10
44871;PMS7003;30602;51.060;17.226;2024-03-23T20:56:33;14;12;10
44871;PMS7003;30602;51.060;17.226;2024-03-23T20:59:53;19;14;8
44871;PMS7003;30602;51.060;17.226;2024-03-23T21:03:10;12;11;8
44871;PMS7003;30602;51.060;17.226;2024-03-23T21:06:26;7;6;5
44871;PMS7003;30602;51.060;17.226;2024-03-23T21:10:18;9;8;5
44871;PMS7003;30602;51.060;17.226;2024-03-23T21:13:35;9;6;5
44871;PMS7003;30602;51.060;17.226;2024-03-23T21:16:53;11;10;6
44871;PMS7003;30602;51.060;17.226;2024-03-23T21:20:11;15;13;8
44871;PMS7003;30602;51.060;17.226;2024-03-23T21:23:29;20;17;10
44871;PMS7003;30602;51.060;17.226;2024-03-23T21:26:49;17;17;9
44871;PMS7003;30602;51.060;17.226;2024-03-23T21:30:09;15;14;10
44871;PMS7003;30602;51.060;17.226;2024-03-23T21:33:28;21;20;13
44871;PMS7003;30602;51.060;17.226;2024-03-23T21:36:48;21;20;11
44871;PMS7003;30602;51.060;17.226;2024-03-23T21:40:50;23;22;14
44871;PMS7003;30602;51.060;17.226;2024-03-23T21:44:52;28;22;14
44871;PMS7003;30602;51.060;17.226;2024-03-23T21:48:11;21;19;11
44871;PMS7003;30602;51.060;17.226;2024-03-23T21:51:28;22;18;12
44871;PMS7003;30602;51.060;17.226;2024-03-23T21:55:29;56;45;27
44871;PMS7003;30602;51.060;17.226;2024-03-23T21:59:16;64;47;26
44871;PMS7003;30602;51.060;17.226;2024-03-23T22:02:34;38;31;17
44871;PMS7003;30602;51.060;17.226;2024-03-23T22:06:26;46;36;21
44871;PMS7003;30602;51.060;17.226;2024-03-23T22:10:22;43;33;18
44871;PMS7003;30602;51.060;17.226;2024-03-23T22:14:19;55;42;24
44871;PMS7003;30602;51.060;17.226;2024-03-23T22:17:39;54;39;21
44871;PMS7003;30602;51.060;17.226;2024-03-23T22:21:30;54;43;25
44871;PMS7003;30602;51.060;17.226;2024-03-23T22:25:26;62;48;28
44871;PMS7003;30602;51.060;17.226;2024-03-23T22:29:17;70;51;28
44871;PMS7003;30602;51.060;17.226;2024-03-23T22:32:39;62;46;27
44871;PMS7003;30602;51.060;17.226;2024-03-23T22:37:49;57;45;24
44871;PMS7003;30602;51.060;17.226;2024-03-23T22:41:10;47;40;19
44871;PMS7003;30602;51.060;17.226;2024-03-23T22:44:35;51;40;20
44871;PMS7003;30602;51.060;17.226;2024-03-23T22:47:55;39;36;19
44871;PMS7003;30602;51.060;17.226;2024-03-23T22:51:12;58;46;28
44871;PMS7003;30602;51.060;17.226;2024-03-23T22:55:05;85;61;35
44871;PMS7003;30602;51.060;17.226;2024-03-23T22:58:32;63;50;26
44871;PMS7003;30602;51.060;17.226;2024-03-23T23:01:58;63;52;31
44871;PMS7003;30602;51.060;17.226;2024-03-23T23:05:58;89;69;39
44871;PMS7003;30602;51.060;17.226;2024-03-23T23:09:26;92;67;36
44871;PMS7003;30602;51.060;17.226;2024-03-23T23:12:51;72;56;33
44871;PMS7003;30602;51.060;17.226;2024-03-23T23:16:15;47;40;26
44871;PMS7003;30602;51.060;17.226;2024-03-23T23:19:41;48;40;24
44871;PMS7003;30602;51.060;17.226;2024-03-23T23:23:03;29;23;16
44871;PMS7003;30602;51.060;17.226;2024-03-23T23:26:58;38;30;18
44871;PMS7003;30602;51.060;17.226;2024-03-23T23:30:19;31;29;20